Terminal Aerodrome Forecast
Issued by NWS

Home | Current Version | Previous Version | Text Only | Print | Product List | Glossary On
Versions: 1 2 3 4 5 6 7 8 9 10 11 12 13 14 15 16 17
407
FTUS43 KDLH 061129
TAFBRD
TAF
KBRD 061129Z 0612/0712 20002KT P6SM SKC
     FM061600 24008G15KT P6SM SKC
     FM061900 26013G22KT P6SM VCSH SCT100
     FM062200 32013G22KT P6SM SKC
     FM070300 34010KT P6SM SKC=

USA.gov is the U.S. government's official web portal to all federal, state and local government web resources and services.